sensor_id;sensor_type;location;lat;lon;timestamp;temperature;humidity
23748;DHT22;12054;53.662;10.126;2023-09-07T00:00:29;21.60;99.90
23748;DHT22;12054;53.662;10.126;2023-09-07T00:02:55;21.60;99.90
23748;DHT22;12054;53.662;10.126;2023-09-07T00:05:20;21.50;99.90
23748;DHT22;12054;53.662;10.126;2023-09-07T00:07:46;21.50;99.90
23748;DHT22;12054;53.662;10.126;2023-09-07T00:10:11;21.50;99.90
23748;DHT22;12054;53.662;10.126;2023-09-07T00:12:38;21.40;99.90
23748;DHT22;12054;53.662;10.126;2023-09-07T00:15:05;21.40;99.90
23748;DHT22;12054;53.662;10.126;2023-09-07T00:17:32;21.40;99.90
23748;DHT22;12054;53.662;10.126;2023-09-07T00:19:57;21.40;99.90
23748;DHT22;12054;53.662;10.126;2023-09-07T00:22:23;21.40;99.90
23748;DHT22;12054;53.662;10.126;2023-09-07T00:24:51;21.30;99.90
23748;DHT22;12054;53.662;10.126;2023-09-07T00:27:16;21.30;99.90
23748;DHT22;12054;53.662;10.126;2023-09-07T00:29:42;21.30;99.90
23748;DHT22;12054;53.662;10.126;2023-09-07T00:32:07;21.30;99.90
23748;DHT22;12054;53.662;10.126;2023-09-07T00:34:34;21.30;99.90
23748;DHT22;12054;53.662;10.126;2023-09-07T00:37:00;21.30;99.90
23748;DHT22;12054;53.662;10.126;2023-09-07T00:39:26;21.20;99.90
23748;DHT22;12054;53.662;10.126;2023-09-07T00:41:51;21.20;99.90
23748;DHT22;12054;53.662;10.126;2023-09-07T00:44:17;21.20;99.90
23748;DHT22;12054;53.662;10.126;2023-09-07T00:46:43;21.20;99.90
23748;DHT22;12054;53.662;10.126;2023-09-07T00:49:13;21.20;99.90
23748;DHT22;12054;53.662;10.126;2023-09-07T00:51:39;21.20;99.90
23748;DHT22;12054;53.662;10.126;2023-09-07T00:54:05;21.10;99.90
23748;DHT22;12054;53.662;10.126;2023-09-07T00:56:31;21.10;99.90
23748;DHT22;12054;53.662;10.126;2023-09-07T00:58:57;21.10;99.90
23748;DHT22;12054;53.662;10.126;2023-09-07T01:01:25;21.10;99.90
23748;DHT22;12054;53.662;10.126;2023-09-07T01:03:51;21.10;99.90
23748;DHT22;12054;53.662;10.126;2023-09-07T01:06:29;21.10;99.90
23748;DHT22;12054;53.662;10.126;2023-09-07T01:08:57;21.10;99.90
23748;DHT22;12054;53.662;10.126;2023-09-07T01:11:26;21.00;99.90
23748;DHT22;12054;53.662;10.126;2023-09-07T01:13:52;21.00;99.90
23748;DHT22;12054;53.662;10.126;2023-09-07T01:16:20;21.00;99.90
23748;DHT22;12054;53.662;10.126;2023-09-07T01:18:47;21.00;99.90
23748;DHT22;12054;53.662;10.126;2023-09-07T01:21:13;21.00;99.90
23748;DHT22;12054;53.662;10.126;2023-09-07T01:23:42;20.90;99.90
23748;DHT22;12054;53.662;10.126;2023-09-07T01:26:08;20.90;99.90
23748;DHT22;12054;53.662;10.126;2023-09-07T01:28:37;20.90;99.90
23748;DHT22;12054;53.662;10.126;2023-09-07T01:31:03;20.80;99.90
23748;DHT22;12054;53.662;10.126;2023-09-07T01:33:29;20.80;99.90
23748;DHT22;12054;53.662;10.126;2023-09-07T01:35:55;20.80;99.90
23748;DHT22;12054;53.662;10.126;2023-09-07T01:38:20;20.70;99.90
23748;DHT22;12054;53.662;10.126;2023-09-07T01:40:46;20.70;99.90
23748;DHT22;12054;53.662;10.126;2023-09-07T01:43:12;20.70;99.90
23748;DHT22;12054;53.662;10.126;2023-09-07T01:45:37;20.70;99.90
23748;DHT22;12054;53.662;10.126;2023-09-07T01:48:03;20.60;99.90
23748;DHT22;12054;53.662;10.126;2023-09-07T01:50:29;20.60;99.90
23748;DHT22;12054;53.662;10.126;2023-09-07T01:52:54;20.60;99.90
23748;DHT22;12054;53.662;10.126;2023-09-07T01:55:20;20.50;99.90
23748;DHT22;12054;53.662;10.126;2023-09-07T01:57:45;20.50;99.90
23748;DHT22;12054;53.662;10.126;2023-09-07T02:00:12;20.50;99.90
23748;DHT22;12054;53.662;10.126;2023-09-07T02:02:38;20.40;99.90
23748;DHT22;12054;53.662;10.126;2023-09-07T02:05:03;20.40;99.90
23748;DHT22;12054;53.662;10.126;2023-09-07T02:07:29;20.30;99.90
23748;DHT22;12054;53.662;10.126;2023-09-07T02:09:55;20.40;99.90
23748;DHT22;12054;53.662;10.126;2023-09-07T02:12:20;21.00;99.90
23748;DHT22;12054;53.662;10.126;2023-09-07T02:14:46;20.50;99.90
23748;DHT22;12054;53.662;10.126;2023-09-07T02:17:11;20.30;99.90
23748;DHT22;12054;53.662;10.126;2023-09-07T02:19:43;20.20;99.90
23748;DHT22;12054;53.662;10.126;2023-09-07T02:22:09;20.20;99.90
23748;DHT22;12054;53.662;10.126;2023-09-07T02:24:34;20.10;99.90
23748;DHT22;12054;53.662;10.126;2023-09-07T02:27:00;20.10;99.90
23748;DHT22;12054;53.662;10.126;2023-09-07T02:29:25;20.10;99.90
23748;DHT22;12054;53.662;10.126;2023-09-07T02:31:52;20.10;99.90
23748;DHT22;12054;53.662;10.126;2023-09-07T02:34:17;20.80;99.90
23748;DHT22;12054;53.662;10.126;2023-09-07T02:36:43;20.00;99.90
23748;DHT22;12054;53.662;10.126;2023-09-07T02:39:08;19.90;99.90
23748;DHT22;12054;53.662;10.126;2023-09-07T02:41:36;19.90;99.90
23748;DHT22;12054;53.662;10.126;2023-09-07T02:44:02;20.00;99.90
23748;DHT22;12054;53.662;10.126;2023-09-07T02:46:28;19.90;99.90
23748;DHT22;12054;53.662;10.126;2023-09-07T02:48:54;19.80;99.90
23748;DHT22;12054;53.662;10.126;2023-09-07T02:51:23;19.80;99.90
23748;DHT22;12054;53.662;10.126;2023-09-07T02:53:50;19.80;99.90
23748;DHT22;12054;53.662;10.126;2023-09-07T02:56:16;19.80;99.90
23748;DHT22;12054;53.662;10.126;2023-09-07T02:58:41;19.70;99.90
23748;DHT22;12054;53.662;10.126;2023-09-07T03:01:07;19.70;99.90
23748;DHT22;12054;53.662;10.126;2023-09-07T03:03:36;18.80;99.90
23748;DHT22;12054;53.662;10.126;2023-09-07T03:06:12;19.80;99.90
23748;DHT22;12054;53.662;10.126;2023-09-07T03:08:45;19.60;99.90
23748;DHT22;12054;53.662;10.126;2023-09-07T03:11:11;19.60;99.90
23748;DHT22;12054;53.662;10.126;2023-09-07T03:13:37;19.50;99.90
23748;DHT22;12054;53.662;10.126;2023-09-07T03:16:03;19.50;99.90
23748;DHT22;12054;53.662;10.126;2023-09-07T03:18:30;19.50;99.90
23748;DHT22;12054;53.662;10.126;2023-09-07T03:20:59;19.90;99.90
23748;DHT22;12054;53.662;10.126;2023-09-07T03:23:24;19.40;99.90
23748;DHT22;12054;53.662;10.126;2023-09-07T03:25:50;19.40;99.90
23748;DHT22;12054;53.662;10.126;2023-09-07T03:28:15;19.40;99.90
23748;DHT22;12054;53.662;10.126;2023-09-07T03:30:41;19.40;99.90
23748;DHT22;12054;53.662;10.126;2023-09-07T03:33:07;19.30;99.90
23748;DHT22;12054;53.662;10.126;2023-09-07T03:35:32;19.30;99.90
23748;DHT22;12054;53.662;10.126;2023-09-07T03:37:58;19.30;99.90
23748;DHT22;12054;53.662;10.126;2023-09-07T03:40:24;19.30;99.90
23748;DHT22;12054;53.662;10.126;2023-09-07T03:42:49;19.20;99.90
23748;DHT22;12054;53.662;10.126;2023-09-07T03:45:15;19.20;99.90
23748;DHT22;12054;53.662;10.126;2023-09-07T03:47:41;19.20;99.90
23748;DHT22;12054;53.662;10.126;2023-09-07T03:50:07;19.20;99.90
23748;DHT22;12054;53.662;10.126;2023-09-07T03:52:33;19.10;99.90
23748;DHT22;12054;53.662;10.126;2023-09-07T03:54:59;19.10;99.90
23748;DHT22;12054;53.662;10.126;2023-09-07T03:57:26;19.10;99.90
23748;DHT22;12054;53.662;10.126;2023-09-07T03:59:51;19.10;99.90
23748;DHT22;12054;53.662;10.126;2023-09-07T04:02:17;19.00;99.90
23748;DHT22;12054;53.662;10.126;2023-09-07T04:04:43;19.10;99.90
23748;DHT22;12054;53.662;10.126;2023-09-07T04:07:09;19.00;99.90
23748;DHT22;12054;53.662;10.126;2023-09-07T04:09:35;19.00;99.90
23748;DHT22;12054;53.662;10.126;2023-09-07T04:12:00;19.00;99.90
23748;DHT22;12054;53.662;10.126;2023-09-07T04:14:26;18.90;99.90
23748;DHT22;12054;53.662;10.126;2023-09-07T04:16:52;18.90;99.90
23748;DHT22;12054;53.662;10.126;2023-09-07T04:19:17;18.90;99.90
23748;DHT22;12054;53.662;10.126;2023-09-07T04:21:43;18.80;99.90
23748;DHT22;12054;53.662;10.126;2023-09-07T04:24:08;18.80;99.90
23748;DHT22;12054;53.662;10.126;2023-09-07T04:26:34;18.80;99.90
23748;DHT22;12054;53.662;10.126;2023-09-07T04:28:59;18.80;99.90
23748;DHT22;12054;53.662;10.126;2023-09-07T04:31:25;18.70;99.90
23748;DHT22;12054;53.662;10.126;2023-09-07T04:33:53;18.70;99.90
23748;DHT22;12054;53.662;10.126;2023-09-07T04:36:19;18.70;99.90
23748;DHT22;12054;53.662;10.126;2023-09-07T04:38:44;18.70;99.90
23748;DHT22;12054;53.662;10.126;2023-09-07T04:41:11;18.60;99.90
23748;DHT22;12054;53.662;10.126;2023-09-07T04:43:39;18.60;99.90
23748;DHT22;12054;53.662;10.126;2023-09-07T04:46:11;18.60;99.90
23748;DHT22;12054;53.662;10.126;2023-09-07T04:48:37;18.60;99.90
23748;DHT22;12054;53.662;10.126;2023-09-07T04:51:05;18.50;99.90
23748;DHT22;12054;53.662;10.126;2023-09-07T04:53:32;18.50;99.90
23748;DHT22;12054;53.662;10.126;2023-09-07T04:55:59;18.50;99.90
23748;DHT22;12054;53.662;10.126;2023-09-07T04:58:24;18.50;99.90
23748;DHT22;12054;53.662;10.126;2023-09-07T05:00:51;18.50;99.90
23748;DHT22;12054;53.662;10.126;2023-09-07T05:03:16;18.40;99.90
23748;DHT22;12054;53.662;10.126;2023-09-07T05:05:42;18.40;99.90
23748;DHT22;12054;53.662;10.126;2023-09-07T05:08:09;18.40;99.90
23748;DHT22;12054;53.662;10.126;2023-09-07T05:10:35;18.40;99.90
23748;DHT22;12054;53.662;10.126;2023-09-07T05:13:01;18.40;99.90
23748;DHT22;12054;53.662;10.126;2023-09-07T05:15:26;18.40;99.90
23748;DHT22;12054;53.662;10.126;2023-09-07T05:17:53;18.30;99.90
23748;DHT22;12054;53.662;10.126;2023-09-07T05:20:19;18.30;99.90
23748;DHT22;12054;53.662;10.126;2023-09-07T05:22:44;18.30;99.90
23748;DHT22;12054;53.662;10.126;2023-09-07T05:25:11;18.30;99.90
23748;DHT22;12054;53.662;10.126;2023-09-07T05:27:37;18.30;99.90
23748;DHT22;12054;53.662;10.126;2023-09-07T05:30:04;18.30;99.90
23748;DHT22;12054;53.662;10.126;2023-09-07T05:32:30;18.30;99.90
23748;DHT22;12054;53.662;10.126;2023-09-07T05:34:55;18.30;99.90
23748;DHT22;12054;53.662;10.126;2023-09-07T05:37:21;18.20;99.90
23748;DHT22;12054;53.662;10.126;2023-09-07T05:39:46;18.20;99.90
23748;DHT22;12054;53.662;10.126;2023-09-07T05:42:12;18.20;99.90
23748;DHT22;12054;53.662;10.126;2023-09-07T05:44:38;18.20;99.90
23748;DHT22;12054;53.662;10.126;2023-09-07T05:47:04;18.30;99.90
23748;DHT22;12054;53.662;10.126;2023-09-07T05:49:30;18.20;99.90
23748;DHT22;12054;53.662;10.126;2023-09-07T05:51:56;18.30;99.90
23748;DHT22;12054;53.662;10.126;2023-09-07T05:54:21;18.30;99.90
23748;DHT22;12054;53.662;10.126;2023-09-07T05:56:47;18.30;99.90
23748;DHT22;12054;53.662;10.126;2023-09-07T05:59:12;18.30;99.90
23748;DHT22;12054;53.662;10.126;2023-09-07T06:01:39;18.30;99.90
23748;DHT22;12054;53.662;10.126;2023-09-07T06:04:05;18.30;99.90
23748;DHT22;12054;53.662;10.126;2023-09-07T06:06:31;18.30;99.90
23748;DHT22;12054;53.662;10.126;2023-09-07T06:08:56;18.30;99.90
23748;DHT22;12054;53.662;10.126;2023-09-07T06:11:24;18.30;99.90
23748;DHT22;12054;53.662;10.126;2023-09-07T06:13:50;18.30;99.90
23748;DHT22;12054;53.662;10.126;2023-09-07T06:16:15;18.30;99.90
23748;DHT22;12054;53.662;10.126;2023-09-07T06:18:41;18.40;99.90
23748;DHT22;12054;53.662;10.126;2023-09-07T06:21:07;18.40;99.90
23748;DHT22;12054;53.662;10.126;2023-09-07T06:23:33;18.40;99.90
23748;DHT22;12054;53.662;10.126;2023-09-07T06:25:59;18.40;99.90
23748;DHT22;12054;53.662;10.126;2023-09-07T06:28:25;18.40;99.90
23748;DHT22;12054;53.662;10.126;2023-09-07T06:30:50;18.40;99.90
23748;DHT22;12054;53.662;10.126;2023-09-07T06:33:16;18.40;99.90
23748;DHT22;12054;53.662;10.126;2023-09-07T06:35:42;18.40;99.90
23748;DHT22;12054;53.662;10.126;2023-09-07T06:38:08;18.40;99.90
23748;DHT22;12054;53.662;10.126;2023-09-07T06:40:33;18.50;99.90
23748;DHT22;12054;53.662;10.126;2023-09-07T06:42:59;18.50;99.90
23748;DHT22;12054;53.662;10.126;2023-09-07T06:45:25;18.50;99.90
23748;DHT22;12054;53.662;10.126;2023-09-07T06:47:50;18.60;99.90
23748;DHT22;12054;53.662;10.126;2023-09-07T06:50:16;18.60;99.90
23748;DHT22;12054;53.662;10.126;2023-09-07T06:52:42;18.70;99.90
23748;DHT22;12054;53.662;10.126;2023-09-07T06:55:07;18.70;99.90
23748;DHT22;12054;53.662;10.126;2023-09-07T06:57:33;18.70;99.90
23748;DHT22;12054;53.662;10.126;2023-09-07T07:00:03;18.80;99.90
23748;DHT22;12054;53.662;10.126;2023-09-07T07:02:31;18.80;99.90
23748;DHT22;12054;53.662;10.126;2023-09-07T07:04:56;18.90;99.90
23748;DHT22;12054;53.662;10.126;2023-09-07T07:07:22;19.00;99.90
23748;DHT22;12054;53.662;10.126;2023-09-07T07:09:47;19.10;99.90
23748;DHT22;12054;53.662;10.126;2023-09-07T07:12:14;19.30;99.90
23748;DHT22;12054;53.662;10.126;2023-09-07T07:14:39;19.50;99.90
23748;DHT22;12054;53.662;10.126;2023-09-07T07:17:05;19.80;99.90
23748;DHT22;12054;53.662;10.126;2023-09-07T07:19:31;20.00;99.90
23748;DHT22;12054;53.662;10.126;2023-09-07T07:21:56;20.10;99.90
23748;DHT22;12054;53.662;10.126;2023-09-07T07:24:22;20.40;99.90
23748;DHT22;12054;53.662;10.126;2023-09-07T07:26:47;20.60;99.90
23748;DHT22;12054;53.662;10.126;2023-09-07T07:29:13;20.80;99.90
23748;DHT22;12054;53.662;10.126;2023-09-07T07:31:39;21.00;99.90
23748;DHT22;12054;53.662;10.126;2023-09-07T07:34:04;21.20;99.90
23748;DHT22;12054;53.662;10.126;2023-09-07T07:36:30;21.50;99.90
23748;DHT22;12054;53.662;10.126;2023-09-07T07:38:56;21.60;99.90
23748;DHT22;12054;53.662;10.126;2023-09-07T07:41:21;21.90;99.90
23748;DHT22;12054;53.662;10.126;2023-09-07T07:43:47;22.10;99.90
23748;DHT22;12054;53.662;10.126;2023-09-07T07:46:12;22.30;99.90
23748;DHT22;12054;53.662;10.126;2023-09-07T07:48:41;22.50;99.90
23748;DHT22;12054;53.662;10.126;2023-09-07T07:51:07;22.70;99.90
23748;DHT22;12054;53.662;10.126;2023-09-07T07:53:34;22.90;99.90
23748;DHT22;12054;53.662;10.126;2023-09-07T07:56:00;23.10;99.90
23748;DHT22;12054;53.662;10.126;2023-09-07T07:58:25;23.30;99.90
23748;DHT22;12054;53.662;10.126;2023-09-07T08:00:51;23.60;99.90
23748;DHT22;12054;53.662;10.126;2023-09-07T08:03:16;23.60;99.90
23748;DHT22;12054;53.662;10.126;2023-09-07T08:05:42;23.80;99.90
23748;DHT22;12054;53.662;10.126;2023-09-07T08:08:11;23.90;99.90
23748;DHT22;12054;53.662;10.126;2023-09-07T08:10:37;24.10;99.90
23748;DHT22;12054;53.662;10.126;2023-09-07T08:13:03;24.20;99.90
23748;DHT22;12054;53.662;10.126;2023-09-07T08:15:29;24.40;99.90
23748;DHT22;12054;53.662;10.126;2023-09-07T08:17:56;24.60;99.90
23748;DHT22;12054;53.662;10.126;2023-09-07T08:20:24;24.80;99.90
23748;DHT22;12054;53.662;10.126;2023-09-07T08:22:50;24.90;99.90
23748;DHT22;12054;53.662;10.126;2023-09-07T08:25:16;25.00;99.90
23748;DHT22;12054;53.662;10.126;2023-09-07T08:27:42;25.20;99.90
23748;DHT22;12054;53.662;10.126;2023-09-07T08:30:13;25.30;99.90
23748;DHT22;12054;53.662;10.126;2023-09-07T08:32:41;25.50;99.90
23748;DHT22;12054;53.662;10.126;2023-09-07T08:35:08;25.60;99.90
23748;DHT22;12054;53.662;10.126;2023-09-07T08:37:34;25.70;99.90
23748;DHT22;12054;53.662;10.126;2023-09-07T08:40:00;25.90;99.90
23748;DHT22;12054;53.662;10.126;2023-09-07T08:42:25;26.10;99.90
23748;DHT22;12054;53.662;10.126;2023-09-07T08:44:53;26.20;99.90
23748;DHT22;12054;53.662;10.126;2023-09-07T08:47:20;26.40;99.90
23748;DHT22;12054;53.662;10.126;2023-09-07T08:49:46;26.50;99.90
23748;DHT22;12054;53.662;10.126;2023-09-07T08:52:14;26.60;99.90
23748;DHT22;12054;53.662;10.126;2023-09-07T08:54:41;26.70;99.90
23748;DHT22;12054;53.662;10.126;2023-09-07T08:57:08;26.80;99.90
23748;DHT22;12054;53.662;10.126;2023-09-07T08:59:35;26.90;99.90
23748;DHT22;12054;53.662;10.126;2023-09-07T09:02:01;27.00;99.90
23748;DHT22;12054;53.662;10.126;2023-09-07T09:04:29;27.10;99.90
23748;DHT22;12054;53.662;10.126;2023-09-07T09:06:55;27.20;99.90
23748;DHT22;12054;53.662;10.126;2023-09-07T09:09:22;27.30;99.90
23748;DHT22;12054;53.662;10.126;2023-09-07T09:11:51;27.50;99.90
23748;DHT22;12054;53.662;10.126;2023-09-07T09:14:18;27.60;99.90
23748;DHT22;12054;53.662;10.126;2023-09-07T09:16:50;27.60;99.90
23748;DHT22;12054;53.662;10.126;2023-09-07T09:19:16;27.70;99.90
23748;DHT22;12054;53.662;10.126;2023-09-07T09:21:44;27.70;99.90
23748;DHT22;12054;53.662;10.126;2023-09-07T09:24:11;27.80;99.90
23748;DHT22;12054;53.662;10.126;2023-09-07T09:26:37;27.90;99.90
23748;DHT22;12054;53.662;10.126;2023-09-07T09:29:03;27.90;99.80
23748;DHT22;12054;53.662;10.126;2023-09-07T09:31:29;27.90;99.40
23748;DHT22;12054;53.662;10.126;2023-09-07T09:33:55;27.90;99.30
23748;DHT22;12054;53.662;10.126;2023-09-07T09:36:21;28.00;99.00
23748;DHT22;12054;53.662;10.126;2023-09-07T09:38:51;28.00;99.10
23748;DHT22;12054;53.662;10.126;2023-09-07T09:41:19;28.10;98.30
23748;DHT22;12054;53.662;10.126;2023-09-07T09:43:46;28.10;97.90
23748;DHT22;12054;53.662;10.126;2023-09-07T09:46:15;28.10;97.90
23748;DHT22;12054;53.662;10.126;2023-09-07T09:48:42;28.10;98.00
23748;DHT22;12054;53.662;10.126;2023-09-07T09:51:07;28.20;97.90
23748;DHT22;12054;53.662;10.126;2023-09-07T09:53:33;28.20;97.80
23748;DHT22;12054;53.662;10.126;2023-09-07T09:56:00;28.20;97.90
23748;DHT22;12054;53.662;10.126;2023-09-07T09:58:26;28.20;98.00
23748;DHT22;12054;53.662;10.126;2023-09-07T10:00:57;28.20;97.80
23748;DHT22;12054;53.662;10.126;2023-09-07T10:03:33;28.30;97.80
23748;DHT22;12054;53.662;10.126;2023-09-07T10:06:17;28.20;97.80
23748;DHT22;12054;53.662;10.126;2023-09-07T10:09:04;28.30;97.80
23748;DHT22;12054;53.662;10.126;2023-09-07T10:11:37;28.40;97.60
23748;DHT22;12054;53.662;10.126;2023-09-07T10:14:04;28.50;97.30
23748;DHT22;12054;53.662;10.126;2023-09-07T10:16:43;28.60;97.10
23748;DHT22;12054;53.662;10.126;2023-09-07T10:19:20;28.70;97.00
23748;DHT22;12054;53.662;10.126;2023-09-07T10:21:46;28.80;96.40
23748;DHT22;12054;53.662;10.126;2023-09-07T10:24:26;28.80;96.10
23748;DHT22;12054;53.662;10.126;2023-09-07T10:27:03;28.80;96.00
23748;DHT22;12054;53.662;10.126;2023-09-07T10:29:41;28.90;95.90
23748;DHT22;12054;53.662;10.126;2023-09-07T10:32:07;28.90;95.60
23748;DHT22;12054;53.662;10.126;2023-09-07T10:34:35;28.90;95.50
23748;DHT22;12054;53.662;10.126;2023-09-07T10:37:03;28.90;95.30
23748;DHT22;12054;53.662;10.126;2023-09-07T10:39:31;28.80;94.80
23748;DHT22;12054;53.662;10.126;2023-09-07T10:41:57;28.90;94.40
23748;DHT22;12054;53.662;10.126;2023-09-07T10:44:26;28.90;94.20
23748;DHT22;12054;53.662;10.126;2023-09-07T10:46:54;28.90;93.90
23748;DHT22;12054;53.662;10.126;2023-09-07T10:49:19;28.90;94.00
23748;DHT22;12054;53.662;10.126;2023-09-07T10:51:46;28.80;94.00
23748;DHT22;12054;53.662;10.126;2023-09-07T10:54:22;28.80;93.90
23748;DHT22;12054;53.662;10.126;2023-09-07T10:56:49;28.90;93.30
23748;DHT22;12054;53.662;10.126;2023-09-07T10:59:16;28.90;93.20
23748;DHT22;12054;53.662;10.126;2023-09-07T11:01:44;29.00;93.00
23748;DHT22;12054;53.662;10.126;2023-09-07T11:04:10;29.00;93.00
23748;DHT22;12054;53.662;10.126;2023-09-07T11:06:37;29.10;93.20
23748;DHT22;12054;53.662;10.126;2023-09-07T11:09:04;29.10;92.90
23748;DHT22;12054;53.662;10.126;2023-09-07T11:11:31;29.20;92.20
23748;DHT22;12054;53.662;10.126;2023-09-07T11:13:58;29.20;92.10
23748;DHT22;12054;53.662;10.126;2023-09-07T11:16:25;29.30;92.10
23748;DHT22;12054;53.662;10.126;2023-09-07T11:18:52;29.40;91.60
23748;DHT22;12054;53.662;10.126;2023-09-07T11:21:20;29.40;90.90
23748;DHT22;12054;53.662;10.126;2023-09-07T11:23:45;29.40;90.50
23748;DHT22;12054;53.662;10.126;2023-09-07T11:26:11;29.40;90.60
23748;DHT22;12054;53.662;10.126;2023-09-07T11:28:38;29.40;90.80
23748;DHT22;12054;53.662;10.126;2023-09-07T11:31:03;29.50;90.90
23748;DHT22;12054;53.662;10.126;2023-09-07T11:33:32;29.40;90.70
23748;DHT22;12054;53.662;10.126;2023-09-07T11:35:58;29.40;90.60
23748;DHT22;12054;53.662;10.126;2023-09-07T11:38:29;29.40;90.60
23748;DHT22;12054;53.662;10.126;2023-09-07T11:40:54;29.50;90.60
23748;DHT22;12054;53.662;10.126;2023-09-07T11:43:20;29.50;90.60
23748;DHT22;12054;53.662;10.126;2023-09-07T11:45:46;29.50;90.60
23748;DHT22;12054;53.662;10.126;2023-09-07T11:48:12;29.50;90.40
23748;DHT22;12054;53.662;10.126;2023-09-07T11:50:38;29.60;90.40
23748;DHT22;12054;53.662;10.126;2023-09-07T11:53:06;29.70;90.60
23748;DHT22;12054;53.662;10.126;2023-09-07T11:55:34;29.70;90.00
23748;DHT22;12054;53.662;10.126;2023-09-07T11:58:01;29.70;89.60
23748;DHT22;12054;53.662;10.126;2023-09-07T12:00:26;29.70;89.20
23748;DHT22;12054;53.662;10.126;2023-09-07T12:02:52;29.70;88.50
23748;DHT22;12054;53.662;10.126;2023-09-07T12:05:17;29.70;88.20
23748;DHT22;12054;53.662;10.126;2023-09-07T12:07:44;29.70;87.40
23748;DHT22;12054;53.662;10.126;2023-09-07T12:10:10;29.80;87.20
23748;DHT22;12054;53.662;10.126;2023-09-07T12:12:40;29.80;86.80
23748;DHT22;12054;53.662;10.126;2023-09-07T12:15:06;29.80;86.30
23748;DHT22;12054;53.662;10.126;2023-09-07T12:17:32;29.80;86.70
23748;DHT22;12054;53.662;10.126;2023-09-07T12:19:58;29.80;86.80
23748;DHT22;12054;53.662;10.126;2023-09-07T12:22:23;29.90;86.50
23748;DHT22;12054;53.662;10.126;2023-09-07T12:24:49;29.90;86.70
23748;DHT22;12054;53.662;10.126;2023-09-07T12:27:15;30.00;87.00
23748;DHT22;12054;53.662;10.126;2023-09-07T12:29:41;30.00;87.10
23748;DHT22;12054;53.662;10.126;2023-09-07T12:32:07;30.00;86.10
23748;DHT22;12054;53.662;10.126;2023-09-07T12:34:32;30.00;85.90
23748;DHT22;12054;53.662;10.126;2023-09-07T12:36:58;30.10;85.60
23748;DHT22;12054;53.662;10.126;2023-09-07T12:39:24;30.10;85.80
23748;DHT22;12054;53.662;10.126;2023-09-07T12:41:49;30.10;85.70
23748;DHT22;12054;53.662;10.126;2023-09-07T12:44:15;30.20;85.40
23748;DHT22;12054;53.662;10.126;2023-09-07T12:46:41;30.20;85.30
23748;DHT22;12054;53.662;10.126;2023-09-07T12:49:08;30.30;84.70
23748;DHT22;12054;53.662;10.126;2023-09-07T12:51:33;30.20;84.60
23748;DHT22;12054;53.662;10.126;2023-09-07T12:53:59;30.30;83.10
23748;DHT22;12054;53.662;10.126;2023-09-07T12:56:24;30.30;83.40
23748;DHT22;12054;53.662;10.126;2023-09-07T12:58:50;30.30;83.40
23748;DHT22;12054;53.662;10.126;2023-09-07T13:01:17;30.30;83.50
23748;DHT22;12054;53.662;10.126;2023-09-07T13:03:43;30.30;83.80
23748;DHT22;12054;53.662;10.126;2023-09-07T13:06:09;30.30;83.80
23748;DHT22;12054;53.662;10.126;2023-09-07T13:08:36;30.20;83.40
23748;DHT22;12054;53.662;10.126;2023-09-07T13:11:02;30.20;83.00
23748;DHT22;12054;53.662;10.126;2023-09-07T13:13:27;30.20;82.50
23748;DHT22;12054;53.662;10.126;2023-09-07T13:15:58;30.30;82.30
23748;DHT22;12054;53.662;10.126;2023-09-07T13:18:24;30.30;81.70
23748;DHT22;12054;53.662;10.126;2023-09-07T13:20:53;30.30;81.20
23748;DHT22;12054;53.662;10.126;2023-09-07T13:23:25;30.30;80.60
23748;DHT22;12054;53.662;10.126;2023-09-07T13:25:51;30.30;78.70
23748;DHT22;12054;53.662;10.126;2023-09-07T13:28:16;30.40;78.40
23748;DHT22;12054;53.662;10.126;2023-09-07T13:30:42;30.30;78.60
23748;DHT22;12054;53.662;10.126;2023-09-07T13:33:07;30.40;78.40
23748;DHT22;12054;53.662;10.126;2023-09-07T13:35:33;30.30;78.40
23748;DHT22;12054;53.662;10.126;2023-09-07T13:37:59;30.30;78.20
23748;DHT22;12054;53.662;10.126;2023-09-07T13:40:24;30.30;77.60
23748;DHT22;12054;53.662;10.126;2023-09-07T13:42:54;30.40;77.90
23748;DHT22;12054;53.662;10.126;2023-09-07T13:45:20;30.40;78.40
23748;DHT22;12054;53.662;10.126;2023-09-07T13:47:46;30.40;78.70
23748;DHT22;12054;53.662;10.126;2023-09-07T13:50:11;30.40;78.20
23748;DHT22;12054;53.662;10.126;2023-09-07T13:52:37;30.50;77.10
23748;DHT22;12054;53.662;10.126;2023-09-07T13:55:03;30.50;77.10
23748;DHT22;12054;53.662;10.126;2023-09-07T13:57:29;30.50;77.10
23748;DHT22;12054;53.662;10.126;2023-09-07T13:59:54;30.50;76.30
23748;DHT22;12054;53.662;10.126;2023-09-07T14:02:21;30.50;75.80
23748;DHT22;12054;53.662;10.126;2023-09-07T14:04:46;30.40;75.60
23748;DHT22;12054;53.662;10.126;2023-09-07T14:07:12;30.30;76.00
23748;DHT22;12054;53.662;10.126;2023-09-07T14:09:38;30.30;76.40
23748;DHT22;12054;53.662;10.126;2023-09-07T14:12:04;30.30;76.50
23748;DHT22;12054;53.662;10.126;2023-09-07T14:14:29;30.30;75.30
23748;DHT22;12054;53.662;10.126;2023-09-07T14:16:55;30.40;76.00
23748;DHT22;12054;53.662;10.126;2023-09-07T14:19:23;30.30;75.50
23748;DHT22;12054;53.662;10.126;2023-09-07T14:21:48;30.30;75.60
23748;DHT22;12054;53.662;10.126;2023-09-07T14:24:14;30.30;75.40
23748;DHT22;12054;53.662;10.126;2023-09-07T14:26:39;30.30;75.60
23748;DHT22;12054;53.662;10.126;2023-09-07T14:29:05;30.30;75.90
23748;DHT22;12054;53.662;10.126;2023-09-07T14:31:30;30.20;76.20
23748;DHT22;12054;53.662;10.126;2023-09-07T14:33:56;30.10;76.40
23748;DHT22;12054;53.662;10.126;2023-09-07T14:36:21;30.00;76.20
23748;DHT22;12054;53.662;10.126;2023-09-07T14:38:47;29.90;76.20
23748;DHT22;12054;53.662;10.126;2023-09-07T14:41:24;29.80;76.30
23748;DHT22;12054;53.662;10.126;2023-09-07T14:43:50;29.90;76.50
23748;DHT22;12054;53.662;10.126;2023-09-07T14:46:15;30.00;76.70
23748;DHT22;12054;53.662;10.126;2023-09-07T14:48:41;29.90;76.70
23748;DHT22;12054;53.662;10.126;2023-09-07T14:51:07;29.80;76.30
23748;DHT22;12054;53.662;10.126;2023-09-07T14:53:36;29.70;76.00
23748;DHT22;12054;53.662;10.126;2023-09-07T14:56:01;29.70;75.10
23748;DHT22;12054;53.662;10.126;2023-09-07T14:58:27;29.70;74.30
23748;DHT22;12054;53.662;10.126;2023-09-07T15:00:53;29.70;74.80
23748;DHT22;12054;53.662;10.126;2023-09-07T15:03:18;29.70;74.70
23748;DHT22;12054;53.662;10.126;2023-09-07T15:05:44;29.60;74.80
23748;DHT22;12054;53.662;10.126;2023-09-07T15:08:09;29.50;75.70
23748;DHT22;12054;53.662;10.126;2023-09-07T15:10:35;29.50;74.80